createdAt,value
2023-03-26T00:04:48.718Z,16.48
2023-03-26T00:09:51.632Z,20.92
2023-03-26T00:14:54.509Z,20.40
2023-03-26T00:19:57.357Z,17.23
2023-03-26T00:25:01.671Z,18.52
2023-03-26T00:30:06.802Z,18.08
2023-03-26T00:35:11.267Z,17.75
2023-03-26T00:40:14.377Z,16.35
2023-03-26T00:45:21.510Z,17.92
2023-03-26T00:50:25.262Z,18.75
2023-03-26T00:55:28.337Z,17.75
2023-03-26T01:00:35.579Z,21.38
2023-03-26T01:05:45.143Z,15.20
2023-03-26T01:10:51.133Z,14.00
2023-03-26T01:15:54.325Z,18.55
2023-03-26T01:26:16.154Z,18.20
2023-03-26T01:31:25.422Z,15.55
2023-03-26T01:36:32.671Z,17.95
2023-03-26T01:42:03.126Z,19.65
2023-03-26T01:47:07.593Z,15.90
2023-03-26T01:52:25.380Z,16.55
2023-03-26T01:57:34.308Z,18.08
2023-03-26T02:02:55.239Z,18.08
2023-03-26T02:08:09.876Z,18.70
2023-03-26T02:13:13.792Z,18.67
2023-03-26T02:18:16.740Z,20.65
2023-03-26T02:23:21.603Z,18.88
2023-03-26T02:28:24.638Z,21.90
2023-03-26T02:33:32.336Z,21.58
2023-03-26T02:38:35.817Z,23.33
2023-03-26T02:43:40.064Z,19.98
2023-03-26T02:48:48.108Z,23.40
2023-03-26T02:53:56.905Z,23.88
2023-03-26T02:59:18.417Z,23.58
2023-03-26T03:04:25.837Z,20.67
2023-03-26T03:15:01.062Z,21.15
2023-03-26T03:20:22.290Z,22.73
2023-03-26T03:25:26.258Z,19.70
2023-03-26T03:30:30.566Z,21.98
2023-03-26T03:35:56.247Z,24.73
2023-03-26T03:41:00.373Z,22.98
2023-03-26T03:46:05.636Z,23.23
2023-03-26T03:51:35.368Z,23.50
2023-03-26T03:56:41.514Z,24.73
2023-03-26T04:01:59.437Z,22.55
2023-03-26T04:07:14.902Z,21.50
2023-03-26T04:12:36.469Z,19.98
2023-03-26T04:17:42.987Z,23.15
2023-03-26T04:22:48.560Z,22.50
2023-03-26T04:27:55.863Z,25.77
2023-03-26T04:33:15.573Z,21.80
2023-03-26T04:38:19.878Z,23.88
2023-03-26T04:43:27.405Z,23.30
2023-03-26T04:48:45.438Z,20.80
2023-03-26T04:53:54.629Z,19.48
2023-03-26T04:59:04.231Z,21.20
2023-03-26T05:04:14.980Z,20.52
2023-03-26T05:09:18.286Z,21.05
2023-03-26T05:14:41.513Z,24.42
2023-03-26T05:19:52.304Z,21.65
2023-03-26T05:24:56.523Z,19.10
2023-03-26T05:30:05.105Z,19.23
2023-03-26T05:35:17.489Z,20.65
2023-03-26T05:40:21.685Z,20.83
2023-03-26T05:45:30.825Z,19.25
2023-03-26T05:50:36.965Z,21.52
2023-03-26T05:55:41.032Z,19.95
2023-03-26T06:01:09.654Z,19.80
2023-03-26T06:06:33.274Z,22.20
2023-03-26T06:11:36.699Z,22.83
2023-03-26T06:16:40.758Z,22.08
2023-03-26T06:21:57.367Z,21.15
2023-03-26T06:27:06.648Z,23.27
2023-03-26T06:32:29.751Z,22.10
2023-03-26T06:37:42.680Z,20.77
2023-03-26T06:43:07.907Z,20.42
2023-03-26T06:48:27.519Z,21.17
2023-03-26T06:53:48.916Z,21.13
2023-03-26T06:59:23.927Z,16.50
2023-03-26T07:04:45.140Z,18.73
2023-03-26T07:10:17.180Z,14.95
2023-03-26T07:15:46.196Z,12.77
2023-03-26T07:21:10.462Z,10.55
2023-03-26T07:26:28.312Z,14.98
2023-03-26T07:32:09.596Z,10.85
2023-03-26T07:38:00.190Z,14.65
2023-03-26T07:43:20.261Z,17.60
2023-03-26T07:48:44.959Z,11.85
2023-03-26T07:54:11.561Z,14.02
2023-03-26T07:59:29.312Z,12.75
2023-03-26T08:10:17.383Z,15.98
2023-03-26T08:15:58.009Z,14.43
2023-03-26T08:21:08.236Z,13.38
2023-03-26T08:26:19.962Z,11.63
2023-03-26T08:31:35.642Z,13.15
2023-03-26T08:36:39.290Z,15.73
2023-03-26T08:41:52.384Z,11.95
2023-03-26T08:47:16.439Z,12.20
2023-03-26T08:52:40.901Z,11.55
2023-03-26T08:58:21.225Z,15.40
2023-03-26T09:03:39.749Z,10.63
2023-03-26T09:09:19.116Z,12.75
2023-03-26T09:14:57.761Z,10.65
2023-03-26T09:20:00.837Z,9.30
2023-03-26T09:25:29.731Z,6.85
2023-03-26T09:30:43.279Z,9.65
2023-03-26T09:36:11.836Z,10.50
2023-03-26T09:41:32.879Z,11.10
2023-03-26T09:46:46.670Z,9.27
2023-03-26T09:52:12.667Z,11.65
2023-03-26T09:57:29.490Z,10.40
2023-03-26T10:03:09.329Z,9.23
2023-03-26T10:08:48.222Z,10.02
2023-03-26T10:13:59.872Z,12.85
2023-03-26T10:19:30.477Z,11.68
2023-03-26T10:24:36.699Z,15.10
2023-03-26T10:29:58.339Z,11.95
2023-03-26T10:35:26.655Z,13.45
2023-03-26T10:40:50.154Z,12.30
2023-03-26T10:46:22.744Z,13.20
2023-03-26T10:52:21.154Z,12.38
2023-03-26T10:57:36.572Z,11.23
2023-03-26T11:03:10.120Z,11.43
2023-03-26T11:08:35.913Z,12.93
2023-03-26T11:14:13.778Z,12.43
2023-03-26T11:19:24.570Z,14.10
2023-03-26T11:24:39.297Z,11.35
2023-03-26T11:29:51.646Z,11.40
2023-03-26T11:35:39.464Z,13.82
2023-03-26T11:40:51.205Z,13.68
2023-03-26T11:46:18.324Z,12.85
2023-03-26T11:51:36.947Z,15.38
2023-03-26T11:57:04.710Z,16.35
2023-03-26T12:02:12.298Z,20.40
2023-03-26T12:07:35.928Z,18.58
2023-03-26T12:12:41.842Z,13.50
2023-03-26T12:17:47.428Z,12.07
2023-03-26T12:22:59.687Z,12.57
2023-03-26T12:28:14.074Z,14.68
2023-03-26T12:38:33.411Z,13.10
2023-03-26T12:44:52.689Z,12.68
2023-03-26T12:49:11.913Z,14.05
2023-03-26T12:54:25.578Z,11.50
2023-03-26T12:59:35.037Z,15.77
2023-03-26T13:10:27.526Z,17.20
2023-03-26T13:16:19.216Z,14.18
2023-03-26T13:21:48.159Z,13.38
2023-03-26T13:27:06.532Z,11.98
2023-03-26T13:32:30.036Z,12.05
2023-03-26T13:37:51.556Z,12.98
2023-03-26T13:43:14.449Z,12.52
2023-03-26T13:48:23.176Z,15.23
2023-03-26T13:53:42.184Z,11.80
2023-03-26T13:58:59.835Z,14.35
2023-03-26T14:04:25.908Z,16.58
2023-03-26T14:09:51.548Z,16.48
2023-03-26T14:14:57.651Z,16.38
2023-03-26T14:20:32.991Z,14.05
2023-03-26T14:25:57.353Z,16.17
2023-03-26T14:31:27.544Z,15.10
2023-03-26T14:37:06.195Z,15.85
2023-03-26T14:42:29.717Z,15.60
2023-03-26T14:47:42.279Z,16.35
2023-03-26T14:52:52.003Z,17.52
2023-03-26T15:03:26.416Z,26.70
2023-03-26T15:08:58.870Z,21.40
2023-03-26T15:14:41.061Z,20.15
2023-03-26T15:20:00.578Z,21.10
2023-03-26T15:25:38.969Z,24.63
2023-03-26T15:31:19.016Z,30.73
2023-03-26T15:37:12.231Z,22.60
2023-03-26T15:42:45.876Z,22.98
2023-03-26T15:48:13.706Z,30.65
2023-03-26T15:53:38.761Z,34.08
2023-03-26T15:59:12.162Z,29.70
2023-03-26T16:04:50.272Z,36.85
2023-03-26T16:10:41.041Z,37.33
2023-03-26T16:16:15.091Z,30.73
2023-03-26T16:21:39.897Z,34.83
2023-03-26T16:26:51.624Z,38.70
2023-03-26T16:32:09.481Z,29.38
2023-03-26T16:37:36.936Z,37.85
2023-03-26T16:43:02.990Z,32.10
2023-03-26T16:48:17.952Z,33.30
2023-03-26T16:53:41.907Z,30.90
2023-03-26T16:58:44.716Z,36.83
2023-03-26T17:04:12.939Z,29.63
2023-03-26T17:09:43.068Z,19.58
2023-03-26T17:14:55.861Z,20.10
2023-03-26T17:20:13.866Z,18.98
2023-03-26T17:25:34.231Z,28.70
2023-03-26T17:31:03.692Z,23.08
2023-03-26T17:36:12.791Z,23.60
2023-03-26T17:42:01.691Z,28.52
2023-03-26T17:47:50.284Z,22.80
2023-03-26T17:53:06.170Z,23.10
2023-03-26T17:58:37.783Z,17.70
2023-03-26T18:03:49.663Z,15.10
2023-03-26T18:09:13.716Z,14.82
2023-03-26T18:14:16.914Z,14.75
2023-03-26T18:19:23.251Z,19.50
2023-03-26T18:24:37.867Z,15.82
2023-03-26T18:29:46.148Z,16.65
2023-03-26T18:34:58.669Z,14.75
2023-03-26T18:40:12.419Z,14.80
2023-03-26T18:45:24.473Z,22.33
2023-03-26T18:50:35.032Z,15.02
2023-03-26T18:55:39.856Z,26.73
2023-03-26T19:00:43.092Z,15.20
2023-03-26T19:05:46.508Z,12.40
2023-03-26T19:11:11.060Z,20.67
2023-03-26T19:16:36.186Z,15.23
2023-03-26T19:21:41.608Z,11.65
2023-03-26T19:26:45.414Z,10.30
2023-03-26T19:31:52.604Z,11.50
2023-03-26T19:37:01.156Z,13.02
2023-03-26T19:42:06.689Z,12.25
2023-03-26T19:47:29.037Z,13.32
2023-03-26T19:52:38.716Z,14.32
2023-03-26T19:57:41.560Z,13.10
2023-03-26T20:02:49.023Z,11.77
2023-03-26T20:07:53.117Z,13.00
2023-03-26T20:12:56.016Z,13.43
2023-03-26T20:17:59.169Z,14.95
2023-03-26T20:23:02.495Z,15.05
2023-03-26T20:33:17.142Z,16.02
2023-03-26T20:38:24.067Z,14.20
2023-03-26T20:43:32.463Z,13.75
2023-03-26T20:48:35.616Z,14.68
2023-03-26T20:58:41.768Z,14.77
2023-03-26T21:03:46.102Z,14.65
2023-03-26T21:08:49.278Z,15.25
2023-03-26T21:14:19.419Z,15.02
2023-03-26T21:19:22.622Z,16.25
2023-03-26T21:24:58.374Z,17.50
2023-03-26T21:30:02.903Z,15.93
2023-03-26T21:35:09.166Z,13.82
2023-03-26T21:40:17.145Z,15.43
2023-03-26T21:45:39.414Z,14.35
2023-03-26T21:50:44.158Z,15.95
2023-03-26T21:56:06.852Z,16.75
2023-03-26T22:01:33.625Z,15.20
2023-03-26T22:06:49.219Z,15.77
2023-03-26T22:11:52.158Z,15.38
2023-03-26T22:16:55.220Z,15.13
2023-03-26T22:22:16.458Z,15.25
2023-03-26T22:27:19.416Z,17.02
2023-03-26T22:32:23.328Z,16.50
2023-03-26T22:37:27.488Z,16.95
2023-03-26T22:42:30.371Z,14.93
2023-03-26T22:47:36.335Z,19.27
2023-03-26T22:52:40.856Z,15.63
2023-03-26T22:57:43.782Z,18.23
2023-03-26T23:02:47.275Z,18.38
2023-03-26T23:07:52.067Z,16.13
2023-03-26T23:12:54.938Z,16.30
2023-03-26T23:17:58.940Z,17.42
2023-03-26T23:23:02.333Z,15.38
2023-03-26T23:28:05.240Z,14.85
2023-03-26T23:33:09.222Z,14.93
2023-03-26T23:38:13.188Z,15.18
2023-03-26T23:43:16.085Z,16.35
2023-03-26T23:48:24.884Z,16.23
2023-03-26T23:53:30.693Z,14.20
2023-03-26T23:58:33.643Z,12.23
